This is the latest recevied weather packets stored in our database for station/object DM3FAM-13. If no packets are shown the sender has not sent any weather packets the latest 10 day(s).
| Time | Temp. | Humidity | Pressure | Rain* | Wind** | Luminosity | Snow |
|---|---|---|---|---|---|---|---|
| 1777869030 | 8.89° C | 87% | 1015.2 hPa | 0 mm | - | 4 W/m² | - |
| 1777868430 | 8.33° C | 86% | 1015.3 hPa | 0 mm | - | 3 W/m² | - |
| 1777867830 | 7.78° C | 87% | 1015.4 hPa | 0 mm | - | 1 W/m² | - |
| 1777867231 | 7.78° C | 87% | 1015.5 hPa | 0 mm | - | 1 W/m² | - |
| 1777865430 | 7.22° C | 87% | 1015.6 hPa | 0 mm | - | 0 W/m² | - |
| 1777864830 | 7.22° C | 88% | 1015.8 hPa | 0 mm | - | 0 W/m² | - |
| 1777864230 | 7.22° C | 87% | 1015.7 hPa | 0 mm | - | 0 W/m² | - |
| 1777847431 | 12.22° C | 72% | 1015.3 hPa | 0 mm | - | 0 W/m² | - |
| 1777846831 | 11.67° C | 72% | 1015.3 hPa | 0 mm | - | 0 W/m² | - |
| 1777843230 | 13.33° C | 70% | 1015.3 hPa | 0 mm | - | 0 W/m² | - |
| 1777842630 | 13.33° C | 71% | 1015.2 hPa | 0 mm | - | 0 W/m² | - |
| 1777842031 | 13.33° C | 68% | 1015.2 hPa | 0 mm | - | 0 W/m² | - |
| 1777841431 | 13.33° C | 71% | 1015.4 hPa | 0 mm | - | 0 W/m² | - |
| 1777840230 | 12.78° C | 71% | 1015.6 hPa | 0 mm | - | 0 W/m² | - |
| 1777839630 | 12.78° C | 69% | 1015.7 hPa | 0 mm | - | 0 W/m² | - |
| 1777837831 | 13.33° C | 68% | 1015.5 hPa | 0 mm | - | 0 W/m² | - |
| 1777836631 | 13.33° C | 67% | 1015.3 hPa | 0 mm | - | 0 W/m² | - |
| 1777835431 | 13.89° C | 66% | 1015.3 hPa | 0 mm | - | 0 W/m² | - |
| 1777834830 | 13.89° C | 65% | 1015.2 hPa | 0 mm | - | 0 W/m² | - |
| 1777834230 | 14.44° C | 61% | 1015.4 hPa | 0 mm | - | 1 W/m² | - |
| 1777833030 | 15° C | 59% | 1015.4 hPa | 0 mm | - | 3 W/m² | - |
| 1777832430 | 15.56° C | 59% | 1015.6 hPa | 0 mm | - | 5 W/m² | - |
| 1777827031 | 17.78° C | 42% | 1015.9 hPa | 0 mm | - | 40 W/m² | - |
| 1777825831 | 17.78° C | 43% | 1015.8 hPa | 0 mm | - | 54 W/m² | - |
| 1777825230 | 17.78° C | 43% | 1015.7 hPa | 0 mm | - | 61 W/m² | - |
* Rain latest hour (hover to see other rain measurements)
** Current wind speed in m/s (hover to see current wind gust speed)